Startpagina
METAR-TAF:

METAR-TAF

Vliegvelden :

Malmö Airport

Malmö, Zweden

breedte: 55-33N, lengte: 013-22E, hoogte: 106 m

Actueel weer

Dit bericht is 13 minuten geleden gemaakt, om 01:20 UTC
Wind 14 kt uit het westen
Temperatuur 5°C
Vochtigheid 100%
Druk 1019 hPa
Zicht: 2500 m
Geheel bewolkt op 200 ft
nevel

METAR: ESMS 240120Z 26014KT 2500 BR OVC002 05/05 Q1019 R17/290195

Tijdstip: 02:33 (01:33 UTC)

Verwachting

Dit bericht is 1 uur en het 46 minuten geleden gemaakt, om 23:47 UTC
Verwachting geldig van 24 om 00 UTC tot 24 om 24 UTC
Wind 12 kt uit het westen
Zicht: 1200 m
Gebroken wolken op 200 ft
lichte regen, motregen, nevel
Tijdelijke
van 24 om 00 UTC tot 24 om 04 UTC
Zicht: 5000 m
Gebroken wolken op 500 ft
Kans 40%
van 24 om 04 UTC tot 24 om 08 UTC
Zicht: 0600 m
mist
Tijdelijke
van 24 om 08 UTC tot 24 om 24 UTC
Zicht: 5000 m
Gebroken wolken op 500 ft

TAF: ESMS 232347Z 2400/2424 26012KT 1200 -RADZ BR BKN002 TEMPO 2400/2404 5000 NSW BKN005 PROB40 2404/2408 0600 FG TEMPO 2408/2424 5000 NSW BKN005

Waarnemingen en weersverwachtingen van meer dan 4000 vliegvelden (METAR en TAF).

De beschikbare stations zijn de gele en rode punten op de kaart.

Ga met uw muis naar het station om de naam te zien.

Klik dan om waarnemingen en weersverwachtingen te zien.

kaart wijzigen: klik op de groene knoppen met een zwart kruis om in te zoomen, op de groene knop met een streepje om uit te zoomen of op de groene pijlen voor aangrenzende kaarten.


METAR-TAF: